| time (UTC) | temp F | wind direction | speed MPH | gust MPH | rain 1hr in | rain 24hr in | rain mn in | humidity % | barometer mb |
| 20260509214548 | 80 | 75 | 3.0 | 0.0 | 0.00 | 0.00 | 0.00 | 12 | 1006.8 |
| 20260509213100 | 79 | 139 | 3.0 | 0.0 | 0.00 | 0.00 | 0.00 | 13 | 1007.0 |
| 20260509211540 | 78 | 257 | 4.0 | 0.0 | 0.00 | 0.00 | 0.00 | 13 | 1007.3 |
| 20260509210045 | 78 | 140 | 6.0 | 0.0 | 0.00 | 0.00 | 0.00 | 15 | 1007.3 |
| 20260509204538 | 77 | 85 | 3.0 | 0.0 | 0.00 | 0.00 | 0.00 | 16 | 1007.6 |
| 20260509203036 | 77 | 32 | 3.0 | 0.0 | 0.00 | 0.00 | 0.00 | 17 | 1007.9 |
| 20260509201537 | 76 | 102 | 3.0 | 0.0 | 0.00 | 0.00 | 0.00 | 17 | 1007.9 |
| 20260509200033 | 77 | 114 | 4.0 | 0.0 | 0.00 | 0.00 | 0.00 | 17 | 1008.2 |
| 20260509194543 | 76 | 28 | 4.0 | 0.0 | 0.00 | 0.00 | 0.00 | 17 | 1008.5 |
| 20260509193026 | 75 | 48 | 3.0 | 0.0 | 0.00 | 0.00 | 0.00 | 20 | 1008.6 |
| 20260509191522 | 74 | 204 | 3.0 | 0.0 | 0.00 | 0.00 | 0.00 | 19 | 1008.6 |
| 20260509190025 | 73 | 51 | 3.0 | 0.0 | 0.00 | 0.00 | 0.00 | 24 | 1008.8 |
| 20260509184519 | 72 | 26 | 3.0 | 0.0 | 0.00 | 0.00 | 0.00 | 24 | 1009.1 |
| 20260509183017 | 72 | 18 | 3.0 | 0.0 | 0.00 | 0.00 | 0.00 | 23 | 1009.4 |
| 20260509181513 | 71 | 32 | 3.0 | 0.0 | 0.00 | 0.00 | 0.00 | 26 | 1009.4 |
| 20260509180010 | 70 | 26 | 4.0 | 0.0 | 0.00 | 0.00 | 0.00 | 26 | 1009.5 |
| 20260509174509 | 70 | 13 | 3.0 | 0.0 | 0.00 | 0.00 | 0.00 | 28 | 1009.5 |
| 20260509173007 | 69 | 49 | 1.0 | 0.0 | 0.00 | 0.00 | 0.00 | 29 | 1009.5 |
| 20260509171506 | 68 | 49 | 2.0 | 0.0 | 0.00 | 0.00 | 0.00 | 29 | 1009.6 |
| 20260509164556 | 66 | 50 | 2.0 | 0.0 | 0.00 | 0.00 | 0.00 | 34 | 1009.6 |
| 20260509163056 | 65 | 42 | 2.0 | 0.0 | 0.00 | 0.00 | 0.00 | 38 | 1009.6 |
| 20260509161600 | 64 | 38 | 2.0 | 0.0 | 0.00 | 0.00 | 0.00 | 40 | 1009.8 |
| 20260509160049 | 63 | 96 | 2.0 | 0.0 | 0.00 | 0.00 | 0.00 | 40 | 1009.9 |
| 20260509154549 | 62 | 175 | 1.0 | 0.0 | 0.00 | 0.00 | 0.00 | 43 | 1009.9 |
| 20260509153055 | 62 | 188 | 1.0 | 0.0 | 0.00 | 0.00 | 0.00 | 46 | 1010.0 |
| 20260509151541 | 61 | 242 | 2.0 | 0.0 | 0.00 | 0.00 | 0.00 | 47 | 1010.1 |
| 20260509150040 | 61 | 244 | 1.0 | 0.0 | 0.00 | 0.00 | 0.00 | 48 | 1010.0 |
| 20260509144543 | 60 | 244 | 0.0 | 0.0 | 0.00 | 0.00 | 0.00 | 47 | 1010.0 |
| 20260509143034 | 59 | 244 | 0.0 | 0.0 | 0.00 | 0.00 | 0.00 | 47 | 1010.0 |
| 20260509141536 | 57 | 244 | 0.0 | 0.0 | 0.00 | 0.00 | 0.00 | 51 | 1009.9 |
| 20260509140030 | 55 | 257 | 1.0 | 0.0 | 0.00 | 0.00 | 0.00 | 54 | 1009.8 |
| 20260509134526 | 53 | 257 | 1.0 | 0.0 | 0.00 | 0.00 | 0.00 | 53 | 1009.7 |
| 20260509133026 | 52 | 257 | 3.0 | 0.0 | 0.00 | 0.00 | 0.00 | 52 | 1009.6 |
| 20260509131524 | 50 | 257 | 3.0 | 0.0 | 0.00 | 0.00 | 0.00 | 53 | 1009.4 |
| 20260509130022 | 50 | 256 | 3.0 | 0.0 | 0.00 | 0.00 | 0.00 | 53 | 1009.4 |
| 20260509124522 | 51 | 258 | 4.0 | 0.0 | 0.00 | 0.00 | 0.00 | 53 | 1009.1 |
| 20260509123021 | 51 | 254 | 4.0 | 0.0 | 0.00 | 0.00 | 0.00 | 53 | 1009.1 |
| 20260509121520 | 50 | 252 | 4.0 | 0.0 | 0.00 | 0.00 | 0.00 | 56 | 1009.0 |
| 20260509120018 | 49 | 248 | 4.0 | 0.0 | 0.00 | 0.00 | 0.00 | 60 | 1009.1 |
| 20260509114516 | 50 | 248 | 3.0 | 0.0 | 0.00 | 0.00 | 0.00 | 61 | 1009.1 |
| 20260509113012 | 51 | 248 | 4.0 | 0.0 | 0.00 | 0.00 | 0.00 | 59 | 1009.0 |
| 20260509111509 | 52 | 248 | 4.0 | 0.0 | 0.00 | 0.00 | 0.00 | 56 | 1008.9 |
| 20260509110009 | 52 | 249 | 4.0 | 0.0 | 0.00 | 0.00 | 0.00 | 55 | 1009.1 |
| 20260509104507 | 52 | 254 | 5.0 | 0.0 | 0.00 | 0.00 | 0.00 | 56 | 1009.0 |
| 20260509103006 | 52 | 248 | 4.0 | 0.0 | 0.00 | 0.00 | 0.00 | 57 | 1009.0 |
| 20260509101506 | 53 | 248 | 4.0 | 0.0 | 0.00 | 0.00 | 0.00 | 57 | 1009.0 |
| 20260509100005 | 53 | 250 | 4.0 | 0.0 | 0.00 | 0.00 | 0.00 | 56 | 1009.0 |
| 20260509094504 | 53 | 251 | 4.0 | 0.0 | 0.00 | 0.00 | 0.00 | 55 | 1008.8 |
| 20260509093004 | 53 | 254 | 4.0 | 0.0 | 0.00 | 0.00 | 0.00 | 55 | 1008.8 |
| 20260509091503 | 52 | 248 | 4.0 | 0.0 | 0.00 | 0.00 | 0.00 | 57 | 1008.9 |
| 20260509090108 | 52 | 248 | 3.0 | 0.0 | 0.00 | 0.00 | 0.00 | 56 | 1008.7 |
| 20260509084606 | 53 | 248 | 3.0 | 0.0 | 0.00 | 0.00 | 0.00 | 55 | 1008.8 |
| 20260509083109 | 53 | 248 | 4.0 | 0.0 | 0.00 | 0.00 | 0.00 | 54 | 1008.6 |
| 20260509081554 | 54 | 246 | 4.0 | 0.0 | 0.00 | 0.00 | 0.00 | 53 | 1008.7 |
| 20260509080053 | 53 | 246 | 3.0 | 0.0 | 0.00 | 0.00 | 0.00 | 54 | 1008.7 |
| 20260509074608 | 55 | 245 | 4.0 | 0.0 | 0.00 | 0.00 | 0.00 | 50 | 1008.7 |
| 20260509073103 | 55 | 247 | 4.0 | 0.0 | 0.00 | 0.00 | 0.00 | 49 | 1008.4 |
| 20260509071552 | 56 | 246 | 4.0 | 0.0 | 0.00 | 0.00 | 0.00 | 48 | 1008.5 |
| 20260509070047 | 57 | 246 | 5.0 | 0.0 | 0.00 | 0.00 | 0.00 | 46 | 1008.5 |
| 20260509064541 | 56 | 244 | 6.0 | 0.0 | 0.00 | 0.00 | 0.00 | 47 | 1008.6 |
| 20260509063055 | 55 | 249 | 4.0 | 0.0 | 0.00 | 0.00 | 0.00 | 49 | 1008.5 |
| 20260509061539 | 56 | 250 | 3.0 | 0.0 | 0.00 | 0.00 | 0.00 | 47 | 1008.6 |
| 20260509060059 | 57 | 250 | 2.0 | 0.0 | 0.00 | 0.00 | 0.00 | 44 | 1008.7 |
| 20260509054539 | 59 | 250 | 2.0 | 0.0 | 0.00 | 0.00 | 0.00 | 40 | 1008.6 |
| 20260509053052 | 59 | 251 | 3.0 | 0.0 | 0.00 | 0.00 | 0.00 | 40 | 1008.3 |
| 20260509051538 | 59 | 251 | 3.0 | 0.0 | 0.00 | 0.00 | 0.00 | 39 | 1008.1 |
| 20260509050038 | 61 | 251 | 2.0 | 0.0 | 0.00 | 0.00 | 0.00 | 38 | 1008.1 |
| 20260509044538 | 62 | 252 | 4.0 | 0.0 | 0.00 | 0.00 | 0.00 | 37 | 1007.7 |
| 20260509043044 | 62 | 252 | 5.0 | 0.0 | 0.00 | 0.00 | 0.00 | 37 | 1007.6 |
| 20260509041536 | 65 | 277 | 1.0 | 0.0 | 0.00 | 0.00 | 0.00 | 34 | 1007.5 |
| 20260509040045 | 66 | 276 | 6.0 | 0.0 | 0.00 | 0.00 | 0.00 | 32 | 1007.1 |
| 20260509034536 | 67 | 295 | 7.0 | 0.0 | 0.00 | 0.00 | 0.00 | 31 | 1007.0 |
| 20260509033044 | 67 | 265 | 9.0 | 0.0 | 0.00 | 0.00 | 0.00 | 30 | 1006.9 |
| 20260509031533 | 67 | 297 | 6.0 | 0.0 | 0.00 | 0.00 | 0.00 | 29 | 1007.0 |
| 20260509030033 | 67 | 287 | 6.0 | 0.0 | 0.00 | 0.00 | 0.00 | 27 | 1006.8 |
| 20260509024535 | 69 | 286 | 6.0 | 0.0 | 0.00 | 0.00 | 0.00 | 26 | 1006.6 |
| 20260509023032 | 71 | 285 | 5.0 | 0.0 | 0.00 | 0.00 | 0.00 | 23 | 1006.4 |
| 20260509021532 | 73 | 279 | 7.0 | 0.0 | 0.00 | 0.00 | 0.00 | 21 | 1006.3 |
| 20260509020031 | 74 | 274 | 7.0 | 0.0 | 0.00 | 0.00 | 0.00 | 20 | 1006.2 |
| 20260509014532 | 76 | 294 | 6.0 | 0.0 | 0.00 | 0.00 | 0.00 | 18 | 1006.2 |
| 20260509013032 | 76 | 278 | 6.0 | 0.0 | 0.00 | 0.00 | 0.00 | 16 | 1006.1 |
| 20260509011530 | 77 | 314 | 6.0 | 0.0 | 0.00 | 0.00 | 0.00 | 14 | 1006.0 |
| 20260509010035 | 77 | 318 | 7.0 | 0.0 | 0.00 | 0.00 | 0.00 | 15 | 1006.0 |
| 20260509004530 | 78 | 329 | 6.0 | 0.0 | 0.00 | 0.00 | 0.00 | 14 | 1006.0 |
| 20260509003033 | 79 | 319 | 6.0 | 0.0 | 0.00 | 0.00 | 0.00 | 12 | 1006.1 |
| 20260509001530 | 79 | 322 | 4.0 | 0.0 | 0.00 | 0.00 | 0.00 | 12 | 1006.0 |
| 20260509000027 | 79 | 5 | 3.0 | 0.0 | 0.00 | 0.00 | 0.00 | 12 | 1006.1 |
| 20260508234530 | 79 | 259 | 3.0 | 0.0 | 0.00 | 0.00 | 0.00 | 13 | 1006.0 |
| 20260508233029 | 79 | 53 | 3.0 | 0.0 | 0.00 | 0.00 | 0.00 | 11 | 1006.1 |
| 20260508231524 | 79 | 203 | 3.0 | 0.0 | 0.00 | 0.00 | 0.00 | 13 | 1006.4 |
| 20260508230023 | 79 | 96 | 2.0 | 0.0 | 0.00 | 0.00 | 0.00 | 12 | 1006.5 |
| 20260508224523 | 79 | 84 | 3.0 | 0.0 | 0.00 | 0.00 | 0.00 | 14 | 1006.8 |
| 20260508223021 | 79 | 67 | 3.0 | 0.0 | 0.00 | 0.00 | 0.00 | 16 | 1006.9 |
| 20260508221518 | 79 | 54 | 2.0 | 0.0 | 0.00 | 0.00 | 0.00 | 15 | 1007.0 |
| 20260508220015 | 78 | 9 | 4.0 | 0.0 | 0.00 | 0.00 | 0.00 | 14 | 1007.3 |